»·PEaware :: N292MC KOLS-KPHX

N292MC :: KOLS-KPHX

FLIGHT INFORMATION

Flight Status: Arrived
Operator: Privately registered:
United States
More flights under this callsign
Pilot: Maurice C. (12314)
Aircraft: Unknown
(KODI)
More flights by this aircraft type
Origin: KOLS Nogales Intl
United States
Destination: KPHX Phoenix Sky Harbor Intl
United States
More flights between these airports :: More routes between these airports
Route: TFD
File this flight plan on PilotEdge
Remarks: ALPHABET CHALLENGE
Altitude:
(Current/Filed)
8,500ft
Speed:
(Current/Filed)
180kts
Departed: 11-Oct-20 01:12 PM
Arrived: 11-Oct-20 02:09 PM
Distance/Time
Traveled:
134nm/0:57
Distance/Time
To Go:
Arrived

Flight Plot

Page will automatically refresh every two minutes.

Flight plan parsing failed; only flown route is shown


Map Options




Map Legend


Flown Route
Filed Route
Departure Airport
Arrival Airport
Navaid (VOR, NDB)
Fix

Horizontal Profiles

Position Reports

Time Latitude Longitude Heading Altitude Ground
Speed
11-Oct-20 12:52 31.417703 -110.850704 133 3886ft 0kts
11-Oct-20 12:53 31.417703 -110.850704 133 3886ft 0kts
11-Oct-20 12:54 31.417703 -110.850704 133 3886ft 0kts
11-Oct-20 12:55 31.417703 -110.850704 133 3886ft 0kts
11-Oct-20 12:56 31.417703 -110.850704 133 3886ft 0kts
11-Oct-20 12:57 31.417703 -110.850704 133 3886ft 0kts
11-Oct-20 12:58 31.417703 -110.850704 133 3886ft 0kts
11-Oct-20 12:59 31.417703 -110.850704 133 3886ft 0kts
11-Oct-20 13:00 31.417703 -110.850704 133 3886ft 0kts
11-Oct-20 13:01 31.417703 -110.850704 133 3886ft 0kts
11-Oct-20 13:02 31.417703 -110.850704 133 3886ft 0kts
11-Oct-20 13:03 31.417701 -110.850701 134 3886ft 0kts
11-Oct-20 13:04 31.417701 -110.850701 134 3886ft 0kts
11-Oct-20 13:05 31.417701 -110.850701 134 3886ft 0kts
11-Oct-20 13:06 31.416827 -110.851044 170 3881ft 0kts
11-Oct-20 13:07 31.417027 -110.850525 44 3883ft 25kts
11-Oct-20 13:08 31.420664 -110.846116 47 3916ft 16kts
11-Oct-20 13:09 31.424926 -110.840873 45 3950ft 20kts
11-Oct-20 13:10 31.425054 -110.840187 141 3954ft 6kts
11-Oct-20 13:11 31.413774 -110.856343 233 4379ft 126kts
11-Oct-20 13:12 31.424075 -110.895300 320 5374ft 162kts
11-Oct-20 13:13 31.464744 -110.920296 332 6326ft 166kts
11-Oct-20 13:14 31.506666 -110.942694 332 7237ft 166kts
11-Oct-20 13:15 31.548499 -110.965114 332 8133ft 164kts
11-Oct-20 13:16 31.591829 -110.988194 333 8484ft 183kts
11-Oct-20 13:17 31.639110 -111.013242 333 8471ft 187kts
11-Oct-20 13:18 31.686668 -111.038422 333 8468ft 187kts
11-Oct-20 13:19 31.732478 -111.066717 318 8469ft 185kts
11-Oct-20 13:20 31.777235 -111.097814 325 8448ft 186kts
11-Oct-20 13:22 31.821344 -111.129784 325 8426ft 186kts
11-Oct-20 13:23 31.865567 -111.161730 325 8415ft 186kts
11-Oct-20 13:24 31.909423 -111.193426 326 8470ft 185kts
11-Oct-20 13:25 31.953469 -111.225342 325 8452ft 186kts
11-Oct-20 13:26 31.997640 -111.257335 325 8438ft 187kts
11-Oct-20 13:27 32.041789 -111.289358 326 8425ft 186kts
11-Oct-20 13:28 32.085787 -111.321311 326 8410ft 186kts
11-Oct-20 13:29 32.129531 -111.353157 325 8468ft 185kts
11-Oct-20 13:30 32.173434 -111.385109 326 8462ft 185kts
11-Oct-20 13:31 32.217329 -111.417113 325 8455ft 186kts
11-Oct-20 13:32 32.261233 -111.449129 326 8454ft 185kts
11-Oct-20 13:33 32.305227 -111.481272 326 8449ft 185kts
11-Oct-20 13:34 32.349019 -111.513309 326 8443ft 185kts
11-Oct-20 13:35 32.393003 -111.545521 326 8438ft 186kts
11-Oct-20 13:36 32.436845 -111.577648 326 8436ft 185kts
11-Oct-20 13:37 32.480621 -111.609967 326 8432ft 186kts
11-Oct-20 13:37 32.518095 -111.637487 326 8125ft 195kts
11-Oct-20 13:39 32.571930 -111.677012 326 7629ft 194kts
11-Oct-20 13:39 32.610017 -111.705053 326 7324ft 194kts
11-Oct-20 13:40 32.655923 -111.738857 326 6941ft 194kts
11-Oct-20 13:41 32.701935 -111.772837 326 6526ft 195kts
11-Oct-20 13:42 32.746806 -111.806088 326 6490ft 187kts
11-Oct-20 13:43 32.791139 -111.838927 326 6490ft 187kts
11-Oct-20 13:44 32.835451 -111.871702 326 6479ft 188kts
11-Oct-20 13:45 32.878958 -111.904081 326 6476ft 180kts
11-Oct-20 13:46 32.927526 -111.916979 351 6463ft 182kts
11-Oct-20 13:47 32.973676 -111.925678 349 6449ft 138kts
11-Oct-20 13:48 33.002771 -111.932666 341 6399ft 110kts
11-Oct-20 13:49 33.029052 -111.969309 277 5844ft 189kts
11-Oct-20 13:50 32.997912 -111.977376 165 5286ft 136kts
11-Oct-20 13:51 32.966923 -111.951300 123 4956ft 143kts
11-Oct-20 13:52 32.988033 -111.925706 319 4376ft 155kts
11-Oct-20 13:53 33.007868 -111.962423 267 4409ft 126kts
11-Oct-20 13:54 33.000377 -111.998288 196 4461ft 119kts
11-Oct-20 13:55 33.002028 -111.967854 11 4570ft 137kts
11-Oct-20 13:56 33.041957 -111.969219 359 4588ft 147kts
11-Oct-20 13:57 33.082760 -111.953181 38 4668ft 164kts
11-Oct-20 13:58 33.124322 -111.928534 357 4966ft 146kts
11-Oct-20 13:59 33.167057 -111.918432 5 5241ft 163kts
11-Oct-20 14:00 33.213972 -111.920920 355 5207ft 171kts
11-Oct-20 14:01 33.250687 -111.924042 354 4654ft 119kts
11-Oct-20 14:02 33.287851 -111.927065 355 4197ft 146kts
11-Oct-20 14:03 33.328813 -111.932267 359 3582ft 149kts
11-Oct-20 14:04 33.370500 -111.932154 359 2946ft 150kts
11-Oct-20 14:05 33.410880 -111.931697 352 2403ft 122kts
11-Oct-20 14:06 33.427799 -111.956370 279 2180ft 99kts
11-Oct-20 14:07 33.428681 -111.988399 270 1488ft 90kts
11-Oct-20 14:08 33.428357 -112.006266 179 1140ft 11kts
11-Oct-20 14:09 33.428016 -112.006277 197 1140ft 0kts
11-Oct-20 14:10 33.427726 -112.014676 266 1140ft 22kts
11-Oct-20 14:11 33.427743 -112.020879 253 1140ft 10kts
11-Oct-20 14:12 33.426059 -112.021771 273 1140ft 0kts
11-Oct-20 14:13 33.426059 -112.021771 273 1140ft 0kts
11-Oct-20 14:14 33.426059 -112.021771 273 1140ft 0kts
11-Oct-20 14:15 33.426059 -112.021771 273 1140ft 0kts

Navigation Log

Ident Type
Flight plan parsing failed, navigation log unavailable